.
WxDataArchive / Data Records for 2015-03-27
2015-03-26 March 2015 2015-03-28

Data Records for Friday, 27 March 2015

Time	Temp	Chill	HIndex	Humid	Dewpt	 Wind 	HiWind	WindDir	Rain 	Barom
-----	----	-----	------	-----	-----	------	------	-------	-----	-----
00:00	31.9	31.9	31.9	70	23.2	0	2	292	0.00	29.986 
00:05	31.8	31.8	31.8	70	23.2	0	1	292	0.00	29.986 
00:10	31.6	31.6	31.6	71	23.3	0	1	292	0.00	29.986 
00:15	31.5	31.5	31.5	71	23.2	0	1	292	0.00	29.989 
00:20	31.3	31.3	31.3	72	23.3	0	1	292	0.00	29.989 
00:25	31.3	31.3	31.3	72	23.3	0	1	292	0.00	29.989 
00:30	31.2	31.2	31.2	72	23.2	0	0	---	0.00	30.000 
00:35	31.0	31.0	31.0	73	23.4	0	0	---	0.00	30.000 
00:40	30.9	30.9	30.9	73	23.3	0	1	292	0.00	30.000 
00:45	30.7	30.7	30.7	73	23.1	0	0	---	0.00	30.001 
00:50	30.6	30.6	30.6	74	23.3	0	0	---	0.00	30.001 
00:55	30.4	30.4	30.4	74	23.1	0	0	---	0.00	30.001 
01:00	30.3	30.3	30.3	75	23.3	0	0	---	0.00	30.002 
01:05	30.1	30.1	30.1	75	23.2	0	0	---	0.00	30.002 
01:10	29.8	29.8	29.8	76	23.2	0	0	---	0.00	30.002 
01:15	29.7	29.7	29.7	76	23.1	0	0	---	0.00	29.995 
01:20	29.5	29.5	29.5	77	23.2	0	0	---	0.00	29.995 
01:25	29.4	29.4	29.4	77	23.1	0	0	---	0.00	29.995 
01:30	29.4	29.4	29.4	77	23.1	0	0	---	0.00	29.992 
01:35	29.3	29.3	29.3	78	23.3	0	0	---	0.00	29.992 
01:40	29.3	29.3	29.3	78	23.3	0	0	---	0.00	29.992 
01:45	29.1	29.1	29.1	78	23.1	0	0	---	0.00	29.988 
01:50	29.0	29.0	29.0	78	23.0	0	0	---	0.00	29.988 
01:55	29.0	29.0	29.0	79	23.3	0	1	292	0.00	29.988 
02:00	29.0	29.0	29.0	79	23.3	0	1	292	0.00	29.986 
02:05	29.0	29.0	29.0	79	23.3	0	1	292	0.00	29.986 
02:10	29.0	29.0	29.0	79	23.3	0	1	292	0.00	29.986 
02:15	29.0	29.0	29.0	79	23.3	0	1	292	0.00	29.988 
02:20	29.0	29.0	29.0	79	23.3	0	0	---	0.00	29.988 
02:25	29.0	29.0	29.0	79	23.3	0	1	292	0.00	29.988 
02:30	29.0	29.0	29.0	79	23.3	0	0	---	0.00	29.984 
02:35	28.8	28.8	28.8	79	23.1	0	0	---	0.00	29.984 
02:40	28.8	28.8	28.8	79	23.1	0	0	---	0.00	29.984 
02:45	28.7	28.7	28.7	79	23.0	0	0	---	0.00	29.984 
02:50	28.7	28.7	28.7	79	23.0	0	0	---	0.00	29.984 
02:55	28.5	28.5	28.5	79	22.8	0	0	---	0.00	29.984 
03:00	28.4	28.4	28.4	80	23.0	0	0	---	0.00	29.984 
03:05	28.2	28.2	28.2	80	22.8	0	0	---	0.00	29.984 
03:10	28.1	28.1	28.1	80	22.7	0	0	---	0.00	29.984 
03:15	27.9	27.9	27.9	81	22.8	0	0	---	0.00	29.984 
03:20	27.9	27.9	27.9	81	22.8	0	0	---	0.00	29.984 
03:25	28.1	28.1	28.1	81	23.0	0	0	---	0.00	29.984 
03:30	28.1	28.1	28.1	81	23.0	0	0	---	0.00	29.984 
03:35	28.2	28.2	28.2	82	23.4	0	0	---	0.00	29.984 
03:40	28.4	28.4	28.4	82	23.6	0	0	---	0.00	29.984 
03:45	28.4	28.4	28.4	82	23.6	0	0	---	0.00	29.982 
03:50	28.4	28.4	28.4	82	23.6	0	0	---	0.00	29.982 
03:55	28.5	28.5	28.5	82	23.7	0	0	---	0.00	29.982 
04:00	28.5	28.5	28.5	82	23.7	0	0	---	0.00	29.981 
04:05	28.5	28.5	28.5	82	23.7	0	0	---	0.00	29.981 
04:10	28.5	28.5	28.5	82	23.7	0	0	---	0.00	29.981 
04:15	28.7	28.7	28.7	82	23.9	0	0	---	0.00	29.982 
04:20	28.7	28.7	28.7	81	23.6	0	0	---	0.00	29.982 
04:25	28.8	28.8	28.8	81	23.7	0	0	---	0.00	29.982 
04:30	28.8	28.8	28.8	81	23.7	0	0	---	0.00	29.982 
04:35	28.8	28.8	28.8	81	23.7	0	0	---	0.00	29.982 
04:40	28.8	28.8	28.8	81	23.7	0	0	---	0.00	29.982 
04:45	29.0	29.0	29.0	80	23.6	0	0	---	0.00	29.984 
04:50	29.0	29.0	29.0	80	23.6	0	0	---	0.00	29.984 
04:55	29.1	29.1	29.1	80	23.7	0	0	---	0.00	29.984 
05:00	29.3	29.3	29.3	80	23.9	0	1	292	0.00	29.984 
05:05	29.4	29.4	29.4	80	24.0	0	1	292	0.00	29.984 
05:10	29.4	29.4	29.4	80	24.0	0	1	292	0.00	29.984 
05:15	29.5	29.5	29.5	80	24.1	1	4	292	0.00	29.986 
05:20	29.5	29.5	29.5	78	23.5	1	3	315	0.00	29.986 
05:25	29.7	29.7	29.7	77	23.4	1	5	270	0.00	29.986 
05:30	29.7	29.7	29.7	75	22.8	1	4	338	0.00	29.985 
05:35	29.7	29.7	29.7	74	22.4	0	3	0	0.00	29.985 
05:40	29.5	29.5	29.5	73	21.9	0	2	0	0.00	29.985 
05:45	29.5	29.5	29.5	73	21.9	0	2	0	0.00	29.989 
05:50	29.4	29.4	29.4	72	21.5	2	10	338	0.00	29.989 
05:55	29.1	29.1	29.1	69	20.2	2	7	338	0.00	29.989 
06:00	29.1	29.1	29.1	68	19.9	1	4	0	0.00	29.992 
06:05	29.0	29.0	29.0	69	20.1	1	3	315	0.00	29.992 
06:10	29.0	29.0	29.0	69	20.1	1	5	0	0.00	29.992 
06:15	28.8	28.8	28.8	67	19.2	1	6	338	0.00	29.998 
06:20	28.7	28.7	28.7	65	18.4	1	5	270	0.00	29.998 
06:25	28.4	28.4	28.4	62	17.1	1	5	338	0.00	29.998 
06:30	28.2	28.2	28.2	60	16.1	1	5	338	0.00	30.003 
06:35	28.2	28.2	28.2	59	15.7	1	4	315	0.00	30.003 
06:40	28.1	28.1	28.1	59	15.6	1	4	338	0.00	30.003 
06:45	27.9	27.9	27.9	60	15.8	1	7	315	0.00	30.005 
06:50	27.8	27.8	27.8	60	15.7	2	5	270	0.00	30.005 
06:55	27.6	27.6	27.6	61	15.9	1	3	338	0.00	30.005 
07:00	27.3	27.3	27.3	61	15.7	1	5	315	0.00	30.014 
07:05	27.2	27.2	27.2	62	15.9	1	3	338	0.00	30.014 
07:10	27.0	27.0	27.0	62	15.7	1	4	292	0.00	30.014 
07:15	26.9	26.9	26.9	62	15.6	1	9	338	0.00	30.023 
07:20	26.7	26.7	26.7	62	15.5	1	3	315	0.00	30.023 
07:25	26.6	26.6	26.6	63	15.7	1	4	338	0.00	30.023 
07:30	26.4	26.4	26.4	64	15.9	1	6	338	0.00	30.024 
07:35	26.1	26.1	26.1	62	14.9	2	5	338	0.00	30.024 
07:40	26.0	26.0	26.0	61	14.4	1	4	338	0.00	30.024 
07:45	25.8	25.8	25.8	61	14.2	0	2	338	0.00	30.034 
07:50	25.8	25.8	25.8	62	14.6	0	1	338	0.00	30.034 
07:55	25.8	25.8	25.8	61	14.2	1	5	338	0.00	30.034 
08:00	25.8	25.8	25.8	60	13.9	1	5	338	0.00	30.039 
08:05	25.8	25.8	25.8	60	13.9	0	3	338	0.00	30.039 
08:10	25.8	25.8	25.8	58	13.1	2	6	338	0.00	30.039 
08:15	25.8	25.8	25.8	58	13.1	1	5	338	0.00	30.048 
08:20	25.8	25.8	25.8	58	13.1	0	2	338	0.00	30.048 
08:25	25.8	25.8	25.8	58	13.1	1	3	292	0.00	30.048 
08:30	25.7	25.7	25.7	58	13.0	1	6	0	0.00	30.054 
08:35	25.6	25.6	25.6	58	12.9	2	6	338	0.00	30.054 
08:40	25.4	25.4	25.4	57	12.3	2	5	338	0.00	30.054 
08:45	25.4	25.4	25.4	57	12.3	1	6	338	0.00	30.059 
08:50	25.7	25.7	25.7	58	13.0	1	4	270	0.00	30.059 
08:55	25.6	25.6	25.6	56	12.1	2	7	0	0.00	30.059 
09:00	25.6	25.6	25.6	56	12.1	2	7	338	0.00	30.059 
09:05	25.4	25.4	25.4	56	11.9	2	9	338	0.00	30.059 
09:10	25.6	25.6	25.6	56	12.1	2	5	338	0.00	30.059 
09:15	25.7	25.7	25.7	55	11.8	2	5	338	0.00	30.060 
09:20	25.8	25.8	25.8	53	11.1	3	10	338	0.00	30.060 
09:25	25.8	25.8	25.8	51	10.2	2	10	338	0.00	30.060 
09:30	26.0	26.0	26.0	51	10.4	2	5	338	0.00	30.061 
09:35	26.0	26.0	26.0	50	9.9	3	7	270	0.00	30.061 
09:40	26.0	26.0	26.0	51	10.4	3	6	292	0.00	30.061 
09:45	26.1	26.1	26.1	51	10.5	2	6	315	0.00	30.060 
09:50	26.0	26.0	26.0	50	9.9	3	9	338	0.00	30.060 
09:55	26.1	26.1	26.1	50	10.0	2	8	292	0.00	30.060 
10:00	26.3	26.3	26.3	50	10.2	3	6	338	0.00	30.060 
10:05	26.0	26.0	26.0	49	9.5	3	11	338	0.00	30.060 
10:10	26.1	26.1	26.1	50	10.0	2	6	338	0.00	30.060 
10:15	26.0	26.0	26.0	49	9.5	3	11	315	0.00	30.059 
10:20	25.8	20.9	25.8	50	9.8	4	10	338	0.00	30.059 
10:25	25.8	20.9	25.8	50	9.8	4	11	338	0.00	30.059 
10:30	25.8	25.8	25.8	50	9.8	3	7	292	0.00	30.064 
10:35	25.6	20.7	25.6	50	9.6	4	11	292	0.00	30.064 
10:40	25.6	20.7	25.6	50	9.6	4	9	0	0.00	30.064 
10:45	25.7	20.8	25.7	50	9.7	4	7	292	0.00	30.063 
10:50	25.7	25.7	25.7	50	9.7	3	7	292	0.00	30.063 
10:55	25.8	25.8	25.8	50	9.8	2	9	338	0.00	30.063 
11:00	25.8	20.9	25.8	50	9.8	4	10	292	0.00	30.063 
11:05	26.1	26.1	26.1	51	10.5	2	5	315	0.00	30.063 
11:10	26.3	26.3	26.3	51	10.7	2	7	292	0.00	30.063 
11:15	26.0	26.0	26.0	50	9.9	3	9	270	0.00	30.069 
11:20	26.3	26.3	26.3	50	10.2	2	7	292	0.00	30.069 
11:25	26.3	26.3	26.3	49	9.8	3	7	315	0.00	30.069 
11:30	26.3	26.3	26.3	49	9.8	3	6	338	0.00	30.064 
11:35	26.3	26.3	26.3	50	10.2	3	10	0	0.00	30.064 
11:40	26.3	21.5	26.3	48	9.3	4	8	338	0.00	30.064 
11:45	26.3	26.3	26.3	49	9.8	2	10	315	0.00	30.068 
11:50	26.6	26.6	26.6	50	10.5	2	7	315	0.00	30.068 
11:55	26.6	26.6	26.6	49	10.0	3	9	338	0.00	30.068 
12:00	26.6	26.6	26.6	50	10.5	2	6	338	0.00	30.069 
12:05	26.7	26.7	26.7	49	10.1	2	10	315	0.00	30.069 
12:10	26.6	26.6	26.6	48	9.6	3	6	292	0.00	30.069 
12:15	26.9	26.9	26.9	49	10.3	2	6	292	0.00	30.068 
12:20	26.9	26.9	26.9	48	9.9	3	10	292	0.00	30.068 
12:25	27.2	27.2	27.2	47	9.7	3	7	338	0.00	30.068 
12:30	27.3	27.3	27.3	46	9.3	2	4	315	0.00	30.068 
12:35	27.6	27.6	27.6	47	10.0	2	6	338	0.00	30.068 
12:40	27.5	27.5	27.5	48	10.4	3	6	338	0.00	30.068 
12:45	27.5	27.5	27.5	48	10.4	2	6	338	0.00	30.070 
12:50	27.5	27.5	27.5	47	9.9	2	7	338	0.00	30.070 
12:55	28.2	28.2	28.2	46	10.1	2	7	315	0.00	30.070 
13:00	28.7	28.7	28.7	46	10.6	1	4	292	0.00	30.070 
13:05	28.4	28.4	28.4	44	9.3	3	10	270	0.00	30.070 
13:10	28.7	28.7	28.7	44	9.6	2	7	338	0.00	30.070 
13:15	28.7	28.7	28.7	43	9.1	2	6	270	0.00	30.071 
13:20	28.5	28.5	28.5	44	9.4	2	9	292	0.00	30.071 
13:25	28.5	28.5	28.5	43	8.9	3	8	292	0.00	30.071 
13:30	28.7	28.7	28.7	44	9.6	2	5	292	0.00	30.071 
13:35	28.8	28.8	28.8	43	9.2	2	6	338	0.00	30.071 
13:40	29.3	29.3	29.3	42	9.1	2	5	292	0.00	30.071 
13:45	29.1	29.1	29.1	42	8.9	3	7	292	0.00	30.070 
13:50	28.7	28.7	28.7	41	8.0	3	10	338	0.00	30.070 
13:55	29.1	29.1	29.1	44	9.9	2	5	292	0.00	30.070 
14:00	30.3	30.3	30.3	42	10.0	3	9	270	0.00	30.069 
14:05	30.1	30.1	30.1	39	8.2	3	7	292	0.00	30.069 
14:10	29.3	25.0	29.3	40	8.0	4	9	292	0.00	30.069 
14:15	29.1	29.1	29.1	40	7.8	2	5	338	0.00	30.070 
14:20	28.8	28.8	28.8	41	8.1	3	9	292	0.00	30.070 
14:25	29.0	29.0	29.0	40	7.7	3	6	270	0.00	30.070 
14:30	29.1	29.1	29.1	41	8.4	2	5	270	0.00	30.066 
14:35	29.7	29.7	29.7	41	8.9	2	6	270	0.00	30.066 
14:40	30.1	30.1	30.1	40	8.7	2	6	338	0.00	30.066 
14:45	30.0	30.0	30.0	40	8.6	1	4	270	0.00	30.062 
14:50	29.5	29.5	29.5	39	7.6	2	6	338	0.00	30.062 
14:55	29.5	29.5	29.5	40	8.2	2	5	292	0.00	30.062 
15:00	29.4	29.4	29.4	38	7.0	3	6	292	0.00	30.062 
15:05	29.1	29.1	29.1	39	7.3	2	7	338	0.00	30.062 
15:10	29.5	29.5	29.5	38	7.1	2	9	315	0.00	30.062 
15:15	30.0	30.0	30.0	39	8.1	2	6	292	0.00	30.049 
15:20	30.6	30.6	30.6	35	6.2	3	7	292	0.00	30.049 
15:25	31.0	31.0	31.0	35	6.6	2	9	270	0.00	30.049 
15:30	31.3	31.3	31.3	35	6.9	3	7	315	0.00	30.045 
15:35	31.3	27.3	31.3	32	4.9	4	9	315	0.00	30.045 
15:40	32.2	32.2	32.2	34	7.0	1	5	315	0.00	30.045 
15:45	32.5	32.5	32.5	32	6.0	3	6	270	0.00	30.041 
15:50	32.2	32.2	32.2	35	7.7	3	10	0	0.00	30.041 
15:55	31.6	31.6	31.6	32	5.2	3	7	338	0.00	30.041 
16:00	30.6	30.6	30.6	32	4.3	2	6	338	0.00	30.045 
16:05	30.3	30.3	30.3	34	5.3	2	5	270	0.00	30.045 
16:10	30.3	30.3	30.3	31	3.3	2	7	338	0.00	30.045 
16:15	29.7	29.7	29.7	31	2.8	3	7	0	0.00	30.047 
16:20	29.8	29.8	29.8	31	2.9	3	6	270	0.00	30.047 
16:25	29.7	29.7	29.7	31	2.8	2	7	270	0.00	30.047 
16:30	29.7	29.7	29.7	32	3.5	1	5	315	0.00	30.047 
16:35	30.0	30.0	30.0	29	1.6	1	6	338	0.00	30.047 
16:40	30.6	30.6	30.6	29	2.2	2	9	338	0.00	30.047 
16:45	30.9	30.9	30.9	29	2.4	2	6	338	0.00	30.044 
16:50	30.9	30.9	30.9	29	2.4	2	5	338	0.00	30.044 
16:55	30.4	30.4	30.4	28	1.2	2	6	270	0.00	30.044 
17:00	30.3	30.3	30.3	29	1.9	2	7	270	0.00	30.046 
17:05	30.3	30.3	30.3	28	1.2	3	9	315	0.00	30.046 
17:10	30.3	30.3	30.3	28	1.2	3	9	338	0.00	30.046 
17:15	30.4	30.4	30.4	28	1.2	2	6	292	0.00	30.046 
17:20	30.9	30.9	30.9	29	2.4	1	5	292	0.00	30.046 
17:25	30.6	30.6	30.6	28	1.4	2	6	338	0.00	30.046 
17:30	30.6	30.6	30.6	28	1.4	3	13	338	0.00	30.047 
17:35	30.4	30.4	30.4	27	0.5	2	9	315	0.00	30.047 
17:40	30.3	30.3	30.3	27	0.4	2	9	338	0.00	30.047 
17:45	30.1	30.1	30.1	28	1.0	1	4	292	0.00	30.047 
17:50	30.4	30.4	30.4	28	1.2	1	6	338	0.00	30.047 
17:55	30.7	30.7	30.7	28	1.5	2	7	338	0.00	30.047 
18:00	30.7	30.7	30.7	27	0.7	3	7	338	0.00	30.047 
18:05	30.7	30.7	30.7	28	1.5	1	9	315	0.00	30.047 
18:10	30.7	30.7	30.7	28	1.5	1	4	292	0.00	30.047 
18:15	30.7	30.7	30.7	27	0.7	3	7	292	0.00	30.055 
18:20	29.8	29.8	29.8	27	-0.1	2	7	338	0.00	30.055 
18:25	29.4	29.4	29.4	28	0.4	1	4	292	0.00	30.055 
18:30	29.4	29.4	29.4	29	1.1	1	4	315	0.00	30.058 
18:35	29.3	29.3	29.3	27	-0.5	1	3	270	0.00	30.058 
18:40	29.3	29.3	29.3	29	1.0	1	5	270	0.00	30.058 
18:45	29.5	29.5	29.5	30	1.9	1	4	338	0.00	30.061 
18:50	29.7	29.7	29.7	29	1.4	1	4	248	0.00	30.061 
18:55	29.5	29.5	29.5	29	1.2	1	4	315	0.00	30.061 
19:00	29.5	29.5	29.5	28	0.5	1	4	315	0.00	30.064 
19:05	29.5	29.5	29.5	28	0.5	1	3	315	0.00	30.064 
19:10	29.4	29.4	29.4	29	1.1	1	3	315	0.00	30.064 
19:15	29.3	29.3	29.3	29	1.0	0	3	0	0.00	30.071 
19:20	29.1	29.1	29.1	29	0.9	1	4	292	0.00	30.071 
19:25	29.0	29.0	29.0	28	0.0	1	6	292	0.00	30.071 
19:30	28.8	28.8	28.8	30	1.3	1	3	0	0.00	30.080 
19:35	28.7	28.7	28.7	30	1.2	1	5	0	0.00	30.080 
19:40	28.7	28.7	28.7	32	2.6	1	4	0	0.00	30.080 
19:45	28.7	28.7	28.7	30	1.2	1	3	292	0.00	30.081 
19:50	28.5	28.5	28.5	32	2.4	1	3	292	0.00	30.081 
19:55	28.4	28.4	28.4	36	4.9	1	7	315	0.00	30.081 
20:00	28.2	28.2	28.2	36	4.7	1	4	248	0.00	30.082 
20:05	27.9	27.9	27.9	36	4.4	0	2	292	0.00	30.082 
20:10	27.8	27.8	27.8	37	5.0	0	2	292	0.00	30.082 
20:15	27.8	27.8	27.8	38	5.5	0	1	292	0.00	30.086 
20:20	27.6	27.6	27.6	38	5.4	0	1	292	0.00	30.086 
20:25	27.6	27.6	27.6	39	5.9	0	1	292	0.00	30.086 
20:30	27.6	27.6	27.6	40	6.5	0	1	292	0.00	30.092 
20:35	27.6	27.6	27.6	43	8.1	2	5	292	0.00	30.092 
20:40	27.5	27.5	27.5	45	9.0	2	6	292	0.00	30.092 
20:45	27.3	27.3	27.3	45	8.8	2	7	270	0.00	30.098 
20:50	27.0	27.0	27.0	46	9.0	1	6	315	0.00	30.098 
20:55	26.9	26.9	26.9	48	9.9	1	6	315	0.00	30.098 
21:00	26.6	26.6	26.6	49	10.0	1	4	315	0.00	30.107 
21:05	26.4	26.4	26.4	50	10.3	0	5	292	0.00	30.107 
21:10	26.1	26.1	26.1	50	10.0	2	5	270	0.00	30.107 
21:15	26.0	26.0	26.0	50	9.9	2	5	270	0.00	30.115 
21:20	25.8	25.8	25.8	51	10.2	2	5	270	0.00	30.115 
21:25	25.7	25.7	25.7	52	10.5	1	3	292	0.00	30.115 
21:30	25.6	25.6	25.6	52	10.4	1	9	292	0.00	30.122 
21:35	25.4	25.4	25.4	52	10.3	1	5	292	0.00	30.122 
21:40	25.1	25.1	25.1	53	10.4	1	4	270	0.00	30.122 
21:45	24.8	24.8	24.8	53	10.1	1	5	270	0.00	30.129 
21:50	24.7	24.7	24.7	54	10.5	2	5	315	0.00	30.129 
21:55	24.5	24.5	24.5	54	10.3	1	4	315	0.00	30.129 
22:00	24.4	24.4	24.4	55	10.6	2	7	315	0.00	30.133 
22:05	24.2	24.2	24.2	55	10.4	1	4	270	0.00	30.133 
22:10	24.1	24.1	24.1	56	10.7	1	4	338	0.00	30.133 
22:15	23.9	23.9	23.9	56	10.5	2	7	270	0.00	30.139 
22:20	23.8	23.8	23.8	56	10.4	2	5	292	0.00	30.139 
22:25	23.6	23.6	23.6	57	10.6	2	4	270	0.00	30.139 
22:30	23.6	23.6	23.6	57	10.6	1	4	338	0.00	30.146 
22:35	23.3	23.3	23.3	58	10.7	1	4	315	0.00	30.146 
22:40	23.2	23.2	23.2	58	10.6	1	4	315	0.00	30.146 
22:45	23.0	23.0	23.0	58	10.5	2	5	270	0.00	30.152 
22:50	23.0	23.0	23.0	58	10.5	1	3	315	0.00	30.152 
22:55	22.9	22.9	22.9	59	10.7	1	3	292	0.00	30.152 
23:00	22.7	22.7	22.7	59	10.6	0	3	292	0.00	30.159 
23:05	22.5	22.5	22.5	59	10.4	1	5	270	0.00	30.159 
23:10	22.5	22.5	22.5	60	10.7	1	4	270	0.00	30.159 
23:15	22.4	22.4	22.4	60	10.6	1	4	270	0.00	30.164 
23:20	22.4	22.4	22.4	60	10.6	0	2	292	0.00	30.164 
23:25	22.2	22.2	22.2	60	10.5	1	3	292	0.00	30.164 
23:30	22.1	22.1	22.1	60	10.4	0	3	292	0.00	30.166 
23:35	21.9	21.9	21.9	61	10.5	0	3	292	0.00	30.166 
23:40	21.9	21.9	21.9	61	10.5	0	3	292	0.00	30.166 
23:45	21.9	21.9	21.9	61	10.5	0	2	292	0.00	30.167 
23:50	21.8	21.8	21.8	62	10.8	0	4	292	0.00	30.167 
23:55	21.6	21.6	21.6	62	10.6	0	1	292	0.00	30.167 

CoCoRaHS
IN-AL-39
A2 Web Hosting
Creative Commons License
GoDaddy
search engine by freefind advanced

loaded 2018-11-17 11:55:42 • last modified 2010-11-18 10:43:29
Privacy PolicyDisclaimer
• wx.awcolley.com is powered by PmWiki v.2002016 •
• all content (unless otherwise noted) © 2018 A W Colley